Time;durP1;ratioP1;P1;durP2;ratioP2;P2;SDS_P1;SDS_P2;PMS_P1;PMS_P2;Temp;Humidity;BMP_temperature;BMP_pressure;BME280_temperature;BME280_humidity;BME280_pressure;Samples;Min_cycle;Max_cycle;Signal;HPM_P1;HPM_P2
2021/12/25 00:00:41;;;;;;;46.87;8.37;;;;;;;20.81;55.99;98429.63;7300011;19;152495;-35
2021/12/25 00:03:07;;;;;;;13.37;2.03;;;;;;;20.90;55.88;98441.72;7309723;19;159183;-36
2021/12/25 00:05:32;;;;;;;51.00;9.40;;;;;;;21.01;55.26;98436.19;7303362;19;159014;-42
2021/12/25 00:07:57;;;;;;;14.98;2.25;;;;;;;21.13;54.97;98434.88;7307517;19;130125;-36
2021/12/25 00:10:23;;;;;;;9.02;1.45;;;;;;;21.23;54.76;98443.38;7311848;19;137551;-39
2021/12/25 00:12:50;;;;;;;15.70;2.65;;;;;;;21.36;53.82;98446.28;7302798;19;145315;-37
2021/12/25 00:15:15;;;;;;;;;;;;;;;21.36;53.83;98448.91;7311185;19;129467;-38
2021/12/25 00:17:40;;;;;;;90.18;16.33;;;;;;;21.43;54.12;98449.88;7292689;19;131703;-35
2021/12/25 00:20:06;;;;;;;9.48;1.58;;;;;;;21.47;53.50;98445.94;7310400;19;153976;-35
2021/12/25 00:22:32;;;;;;;9.82;1.55;;;;;;;21.42;53.87;98448.22;7310099;19;129613;-42
2021/12/25 00:24:58;;;;;;;8.95;1.45;;;;;;;21.37;53.90;98434.84;7303043;19;161990;-37
2021/12/25 00:34:49;;;;;;;14.57;2.05;;;;;;;21.31;54.73;98468.69;7300673;19;129126;-35
2021/12/25 00:37:15;;;;;;;13.27;1.92;;;;;;;21.30;54.65;98464.44;7309201;19;129197;-34
2021/12/25 00:39:43;;;;;;;11.63;2.00;;;;;;;21.28;54.50;98464.59;7309305;19;129534;-32
2021/12/25 00:42:09;;;;;;;10.60;2.05;;;;;;;21.25;54.43;98478.00;7300325;19;129301;-37
2021/12/25 00:44:35;;;;;;;12.63;1.90;;;;;;;21.25;55.12;98488.47;7311431;19;129172;-31
2021/12/25 00:47:01;;;;;;;16.40;2.38;;;;;;;21.20;54.52;98484.69;7300855;19;129874;-37
2021/12/25 00:49:27;;;;;;;10.73;1.57;;;;;;;21.17;55.14;98488.44;7311463;19;129496;-38
2021/12/25 00:51:53;;;;;;;10.77;1.67;;;;;;;21.20;54.82;98488.13;7311771;19;131129;-34
2021/12/25 00:54:18;;;;;;;10.70;1.75;;;;;;;21.15;54.64;98490.44;7297374;19;131269;-38
2021/12/25 00:56:43;;;;;;;12.48;1.98;;;;;;;21.11;54.65;98496.94;7310473;19;129073;-34
2021/12/25 00:59:12;;;;;;;4.28;1.00;;;;;;;21.08;54.72;98502.50;7310602;19;129426;-34
2021/12/25 01:01:37;;;;;;;21.00;3.15;;;;;;;21.02;55.05;98490.09;7298855;19;159467;-33
2021/12/25 01:04:04;;;;;;;7.60;1.52;;;;;;;21.09;55.32;98514.59;7307346;19;130080;-34
2021/12/25 01:06:29;;;;;;;;;;;;;;;21.04;55.45;98509.03;7311395;19;129070;-32
2021/12/25 01:08:54;;;;;;;14.07;2.03;;;;;;;21.02;55.51;98515.41;7309944;19;154611;-39
2021/12/25 01:11:20;;;;;;;11.48;1.83;;;;;;;20.99;55.55;98528.81;7298189;19;134853;-34
2021/12/25 01:13:55;;;;;;;22.00;3.15;;;;;;;20.98;55.56;98525.38;7310247;19;131503;-36
2021/12/25 01:27:22;;;;;;;10.52;1.58;;;;;;;20.82;55.63;98542.78;7305469;19;129549;-33
2021/12/25 01:48:25;;;;;;;8.13;1.38;;;;;;;20.82;56.28;98569.72;7308108;19;130942;-34
2021/12/25 01:50:51;;;;;;;15.05;2.08;;;;;;;20.71;55.64;98546.50;7315129;19;129409;-35
2021/12/25 01:53:17;;;;;;;11.37;1.70;;;;;;;20.80;56.16;98565.63;7316994;19;129353;-35
2021/12/25 01:55:42;;;;;;;13.48;1.90;;;;;;;20.83;55.74;98566.13;7315597;19;129309;-35
2021/12/25 01:58:08;;;;;;;10.98;1.88;;;;;;;20.80;56.23;98561.22;7314567;19;132517;-35
2021/12/25 02:00:40;;;;;;;11.13;1.88;;;;;;;20.80;55.72;98561.22;7315454;19;142269;-34
2021/12/25 02:03:08;;;;;;;11.05;1.90;;;;;;;20.78;55.58;98568.38;7315908;19;130239;-35
2021/12/25 02:05:34;;;;;;;9.57;1.70;;;;;;;20.78;55.92;98573.63;7314758;19;129714;-32
2021/12/25 02:07:59;;;;;;;10.30;1.63;;;;;;;20.83;56.53;98579.19;7313325;19;128848;-34
2021/12/25 02:10:25;;;;;;;11.77;1.67;;;;;;;20.77;55.53;98583.22;7315415;19;132125;-35
2021/12/25 02:12:50;;;;;;;13.45;1.95;;;;;;;20.79;56.15;98580.50;7315986;19;129182;-34
2021/12/25 02:15:19;;;;;;;11.25;1.73;;;;;;;20.76;55.69;98587.81;7314129;19;129776;-37
2021/12/25 02:20:30;;;;;;;14.00;2.28;;;;;;;20.79;56.54;98596.16;7305861;19;129587;-35
2021/12/25 02:23:01;;;;;;;13.43;1.90;;;;;;;20.73;56.26;98581.09;7315119;19;131292;-37
2021/12/25 02:25:31;;;;;;;12.45;1.75;;;;;;;20.69;56.21;98582.41;7305761;19;130781;-42
2021/12/25 02:27:56;;;;;;;12.98;1.92;;;;;;;20.80;56.10;98597.78;7313186;19;129176;-34
2021/12/25 02:30:22;;;;;;;12.45;2.10;;;;;;;20.76;56.15;98599.06;7315803;19;129929;-38
2021/12/25 02:32:47;;;;;;;14.90;2.65;;;;;;;20.68;56.62;98606.88;7305065;19;143264;-37
2021/12/25 02:35:13;;;;;;;11.40;1.87;;;;;;;20.72;56.16;98616.03;7313489;19;158468;-32
2021/12/25 02:37:40;;;;;;;12.32;2.03;;;;;;;20.69;56.29;98605.94;7313581;19;129636;-33
2021/12/25 02:40:07;;;;;;;37.87;6.73;;;;;;;20.63;56.26;98609.97;7313965;19;129056;-34
2021/12/25 02:42:34;;;;;;;12.60;1.95;;;;;;;20.70;55.86;98623.22;7309706;19;129121;-37
2021/12/25 02:45:00;;;;;;;11.20;1.85;;;;;;;20.67;56.18;98623.53;7313779;19;131035;-38
2021/12/25 02:47:25;;;;;;;8.32;1.23;;;;;;;20.68;56.30;98635.59;7304624;19;130051;-33
2021/12/25 02:49:52;;;;;;;8.85;1.52;;;;;;;20.68;56.14;98630.38;7313831;19;129020;-35
2021/12/25 02:52:18;;;;;;;13.27;2.05;;;;;;;20.69;56.35;98632.03;7315033;19;129885;-32
2021/12/25 02:54:44;;;;;;;14.80;2.20;;;;;;;20.62;56.15;98626.63;7301498;19;129881;-37
2021/12/25 02:57:11;;;;;;;13.32;2.22;;;;;;;20.69;56.58;98637.25;7313045;19;129189;-32
2021/12/25 02:59:37;;;;;;;14.77;2.40;;;;;;;20.66;56.19;98633.16;7314469;19;129204;-37
2021/12/25 03:02:08;;;;;;;11.57;1.83;;;;;;;20.65;56.77;98635.94;7309168;19;129117;-38
2021/12/25 03:04:39;;;;;;;9.25;1.52;;;;;;;20.72;56.42;98634.34;7306918;19;130523;-34
2021/12/25 03:07:05;;;;;;;15.30;2.30;;;;;;;20.68;56.39;98633.00;7312858;19;128911;-34
2021/12/25 03:09:30;;;;;;;11.30;1.73;;;;;;;20.68;56.56;98625.16;7314553;19;128846;-37
2021/12/25 03:11:56;;;;;;;11.27;1.60;;;;;;;20.75;56.42;98639.25;7311394;19;130552;-34
2021/12/25 03:14:51;;;;;;;11.30;1.90;;;;;;;20.73;56.28;98628.13;7312462;19;130314;-37
2021/12/25 03:17:09;;;;;;;15.27;2.30;;;;;;;20.74;56.37;98646.25;7313132;19;128962;-34
2021/12/25 03:19:35;;;;;;;23.98;3.25;;;;;;;20.76;56.11;98638.25;7300757;19;155011;-39
2021/12/25 03:22:03;;;;;;;10.48;1.60;;;;;;;20.71;55.81;98637.91;7314641;19;130160;-34
2021/12/25 03:24:28;;;;;;;85.72;16.80;;;;;;;20.67;56.43;98645.25;7300548;19;133622;-39
2021/12/25 03:26:56;;;;;;;9.07;1.35;;;;;;;20.67;56.49;98649.66;7311261;19;156133;-34
2021/12/25 03:29:25;;;;;;;77.00;15.65;;;;;;;20.68;56.75;98656.50;7306130;19;128917;-35
2021/12/25 03:31:51;;;;;;;12.70;1.85;;;;;;;20.67;56.72;98665.31;7313212;19;132819;-33
2021/12/25 03:34:17;;;;;;;14.37;2.00;;;;;;;20.69;56.53;98661.56;7313020;19;131191;-36
2021/12/25 03:36:43;;;;;;;11.52;1.83;;;;;;;20.67;56.62;98660.09;7303794;19;130963;-33
2021/12/25 03:39:09;;;;;;;14.90;2.70;;;;;;;20.65;55.89;98655.03;7312790;19;129006;-39
2021/12/25 03:41:35;;;;;;;12.48;1.88;;;;;;;20.71;56.30;98666.63;7313005;19;129045;-36
2021/12/25 03:44:00;;;;;;;12.05;2.17;;;;;;;20.73;55.92;98675.13;7300480;19;131387;-32
2021/12/25 03:46:29;;;;;;;13.00;1.80;;;;;;;20.75;56.95;98673.19;7313075;19;129078;-35
2021/12/25 03:59:16;;;;;;;117.60;22.42;;;;;;;20.73;55.96;98675.13;7304197;19;129080;-35
2021/12/25 04:02:19;;;;;;;14.55;2.15;;;;;;;20.71;55.94;98677.06;7312546;19;130922;-35
2021/12/25 04:04:39;;;;;;;56.97;11.80;;;;;;;20.71;56.34;98677.91;7298537;19;130304;-38
2021/12/25 04:07:10;;;;;;;8.93;1.60;;;;;;;20.78;56.95;98693.78;7311330;19;128928;-37
2021/12/25 04:09:38;;;;;;;92.40;19.52;;;;;;;20.74;56.36;98701.09;7304723;19;130119;-38
2021/12/25 04:12:07;;;;;;;9.88;1.60;;;;;;;20.66;55.89;98679.34;7312083;19;129236;-37
2021/12/25 04:14:32;;;;;;;59.17;10.52;;;;;;;20.78;56.44;98693.78;7305466;19;130392;-36
2021/12/25 04:16:58;;;;;;;12.15;1.70;;;;;;;20.80;55.85;98694.44;7311222;19;128887;-36
2021/12/25 04:19:24;;;;;;;14.00;1.90;;;;;;;20.82;56.06;98699.50;7312238;19;129064;-36
2021/12/25 04:22:00;;;;;;;11.20;1.60;;;;;;;20.77;56.13;98698.16;7307551;19;130097;-37
2021/12/25 04:24:28;;;;;;;10.45;1.58;;;;;;;20.84;56.14;98698.34;7309976;19;129173;-36
2021/12/25 04:26:53;;;;;;;13.65;1.98;;;;;;;20.83;55.95;98699.34;7304677;19;130998;-36
2021/12/25 04:47:48;;;;;;;13.55;2.15;;;;;;;20.84;55.73;98714.03;7311143;19;130019;-35
2021/12/25 05:04:12;;;;;;;12.25;2.03;;;;;;;20.78;56.38;98717.28;7304260;19;129885;-35
2021/12/25 05:06:37;;;;;;;16.13;2.38;;;;;;;20.77;56.16;98715.66;7308873;19;129431;-37
2021/12/25 05:09:02;;;;;;;12.30;2.08;;;;;;;20.75;56.02;98717.59;7306895;19;154802;-37
2021/12/25 05:11:27;;;;;;;11.57;1.58;;;;;;;20.72;55.83;98715.31;7310836;19;128855;-38
2021/12/25 05:13:53;;;;;;;23.83;4.07;;;;;;;20.74;56.40;98718.59;7308591;19;158205;-36
2021/12/25 05:16:18;;;;;;;12.77;1.90;;;;;;;20.67;56.35;98712.34;7308488;19;159292;-34
2021/12/25 05:18:44;;;;;;;9.27;1.40;;;;;;;20.79;56.32;98725.94;7310703;19;129369;-34
2021/12/25 05:21:09;;;;;;;13.00;2.13;;;;;;;20.73;56.22;98719.53;7310740;19;129262;-36
2021/12/25 05:23:35;;;;;;;5.57;1.08;;;;;;;20.86;56.13;98738.22;7309279;19;129504;-35
2021/12/25 05:26:00;;;;;;;12.73;1.93;;;;;;;20.76;56.36;98741.94;7314885;19;129347;-39
2021/12/25 05:28:27;;;;;;;12.30;1.80;;;;;;;20.84;56.03;98745.38;7313978;19;154907;-32
2021/12/25 05:30:54;;;;;;;14.98;2.05;;;;;;;20.74;56.19;98744.69;7317067;19;129009;-38
2021/12/25 05:33:21;;;;;;;11.25;1.73;;;;;;;20.71;56.22;98726.69;7316650;19;129429;-35
2021/12/25 05:35:47;;;;;;;15.35;2.65;;;;;;;20.76;56.15;98747.16;7316304;19;132250;-33
2021/12/25 05:38:15;;;;;;;13.50;2.17;;;;;;;20.81;56.16;98750.13;7315624;19;128793;-37
2021/12/25 05:40:45;;;;;;;12.57;1.90;;;;;;;20.80;56.00;98748.47;7312770;19;129132;-33
2021/12/25 05:43:11;;;;;;;17.98;2.80;;;;;;;20.80;55.88;98736.25;7314588;19;130303;-32
2021/12/25 05:45:37;;;;;;;16.10;2.80;;;;;;;20.86;55.61;98753.09;7311666;19;131013;-34
2021/12/25 05:48:02;;;;;;;9.32;1.58;;;;;;;20.71;55.71;98745.81;7315483;19;129671;-35
2021/12/25 05:50:27;;;;;;;9.90;1.73;;;;;;;20.77;56.21;98759.22;7315118;19;128805;-39
2021/12/25 05:52:55;;;;;;;13.13;1.87;;;;;;;20.74;56.05;98760.38;7315765;19;158305;-32
2021/12/25 05:55:21;;;;;;;53.95;10.50;;;;;;;20.77;56.05;98760.06;7304341;19;130554;-34
2021/12/25 05:57:46;;;;;;;12.55;1.73;;;;;;;20.87;55.90;98755.56;7313074;19;140803;-31
2021/12/25 06:00:12;;;;;;;21.83;3.43;;;;;;;20.84;55.64;98761.06;7303830;19;153999;-37
2021/12/25 06:02:37;;;;;;;7.75;1.20;;;;;;;20.73;55.58;98761.34;7314061;19;130331;-34
2021/12/25 06:05:06;;;;;;;109.78;22.38;;;;;;;20.85;56.25;98767.94;7304396;19;158426;-39
2021/12/25 06:07:32;;;;;;;14.25;1.95;;;;;;;20.87;56.10;98763.38;7314382;19;130517;-35
2021/12/25 06:09:58;;;;;;;11.83;1.63;;;;;;;20.92;55.77;98768.97;7316392;19;129050;-34
2021/12/25 06:12:24;;;;;;;17.67;2.47;;;;;;;20.84;56.23;98771.50;7306210;19;132506;-36
2021/12/25 06:14:49;;;;;;;13.13;1.97;;;;;;;20.83;56.26;98787.34;7314192;19;129478;-33
2021/12/25 06:17:14;;;;;;;82.68;16.58;;;;;;;20.78;56.25;98787.81;7304166;19;129098;-32
2021/12/25 06:19:40;;;;;;;16.60;2.90;;;;;;;20.82;56.33;98783.09;7315260;19;129960;-31
2021/12/25 06:22:05;;;;;;;9.95;1.60;;;;;;;20.92;55.70;98789.88;7315828;19;129624;-32
2021/12/25 06:24:31;;;;;;;14.88;2.30;;;;;;;20.87;55.19;98789.50;7300496;19;158425;-36
2021/12/25 06:26:56;;;;;;;11.45;1.48;;;;;;;20.76;55.34;98781.91;7314666;19;129608;-38
2021/12/25 06:29:23;;;;;;;10.57;1.80;;;;;;;20.91;56.00;98798.66;7301659;19;153062;-36
2021/12/25 06:31:50;;;;;;;15.60;2.17;;;;;;;20.89;55.62;98779.69;7312619;19;129659;-34
2021/12/25 06:34:15;;;;;;;;;;;;;;;20.98;55.58;98784.03;7306158;19;130283;-40
2021/12/25 06:36:40;;;;;;;12.17;1.80;;;;;;;20.87;55.58;98801.75;7306244;19;155366;-30
2021/12/25 06:39:07;;;;;;;11.17;1.73;;;;;;;20.92;56.17;98808.16;7313522;19;154016;-37
2021/12/25 06:41:32;;;;;;;3.78;0.85;;;;;;;20.85;56.02;98809.75;7302569;19;130489;-33
2021/12/25 06:43:58;;;;;;;11.50;1.73;;;;;;;20.84;55.59;98808.09;7311526;19;129691;-38
2021/12/25 06:46:23;;;;;;;10.07;1.48;;;;;;;20.76;55.61;98810.66;7302938;19;129907;-36
2021/12/25 06:48:48;;;;;;;16.15;2.67;;;;;;;20.75;55.96;98811.63;7313631;19;154181;-36
2021/12/25 06:51:14;;;;;;;9.57;1.60;;;;;;;20.69;55.91;98809.63;7314639;19;129029;-35
2021/12/25 06:53:39;;;;;;;11.75;1.88;;;;;;;20.65;56.13;98814.34;7307610;19;130477;-34
2021/12/25 06:56:05;;;;;;;9.30;1.83;;;;;;;20.66;56.41;98820.38;7311122;19;153934;-32
2021/12/25 06:58:30;;;;;;;18.35;2.53;;;;;;;20.64;55.94;98822.34;7309399;19;130369;-36
2021/12/25 07:00:55;;;;;;;12.68;1.85;;;;;;;20.67;56.60;98827.25;7309140;19;158316;-39
2021/12/25 07:03:21;;;;;;;21.35;3.40;;;;;;;20.62;56.76;98813.81;7298507;19;130150;-31
2021/12/25 07:05:46;;;;;;;15.05;2.38;;;;;;;20.63;56.59;98823.28;7309496;19;154466;-36
2021/12/25 07:08:11;;;;;;;15.50;2.65;;;;;;;20.65;56.11;98822.19;7305306;19;154056;-36
2021/12/25 07:10:37;;;;;;;13.52;2.08;;;;;;;20.67;56.16;98827.25;7308962;19;130255;-33
2021/12/25 07:13:02;;;;;;;9.70;1.65;;;;;;;20.64;56.14;98817.91;7312691;19;159399;-38
2021/12/25 07:15:27;;;;;;;14.95;2.47;;;;;;;20.66;56.67;98815.97;7306064;19;129600;-39
2021/12/25 07:17:52;;;;;;;22.95;3.15;;;;;;;20.69;56.51;98820.09;7312259;19;129274;-37
2021/12/25 07:20:18;;;;;;;13.00;1.85;;;;;;;20.65;56.91;98831.81;7308360;19;142771;-34
2021/12/25 07:22:43;;;;;;;7.93;1.38;;;;;;;20.69;57.04;98840.97;7314874;19;129595;-34
2021/12/25 07:25:09;;;;;;;10.15;1.83;;;;;;;20.67;56.22;98846.38;7301532;19;149144;-39
2021/12/25 07:27:35;;;;;;;17.63;2.55;;;;;;;20.66;57.21;98843.88;7311167;19;129227;-36
2021/12/25 07:30:02;;;;;;;13.70;2.20;;;;;;;20.68;56.65;98857.59;7301188;19;129051;-38
2021/12/25 07:32:28;;;;;;;16.90;2.55;;;;;;;20.66;56.52;98849.94;7310617;19;129521;-35
2021/12/25 07:34:53;;;;;;;14.25;1.98;;;;;;;20.66;56.23;98854.31;7312709;19;129126;-37
2021/12/25 07:37:19;;;;;;;16.65;2.42;;;;;;;20.65;56.51;98860.53;7312629;19;129874;-35
2021/12/25 07:39:44;;;;;;;7.72;1.27;;;;;;;20.66;56.71;98851.72;7311214;19;129551;-32
2021/12/25 07:42:11;;;;;;;12.30;2.20;;;;;;;20.65;56.21;98857.91;7312595;19;129227;-33
2021/12/25 07:44:37;;;;;;;15.23;2.30;;;;;;;20.65;56.51;98855.31;7310760;19;129917;-34
2021/12/25 07:47:08;;;;;;;8.90;1.77;;;;;;;20.64;56.07;98862.31;7311602;19;129362;-34
2021/12/25 07:49:33;;;;;;;14.38;2.40;;;;;;;20.67;56.27;98858.59;7310126;19;130568;-37
2021/12/25 07:51:58;;;;;;;9.15;1.48;;;;;;;20.71;55.98;98859.91;7310779;19;159199;-38
2021/12/25 07:54:24;;;;;;;17.33;2.33;;;;;;;20.69;56.32;98854.03;7310036;19;136186;-33
2021/12/25 07:56:49;;;;;;;13.07;1.77;;;;;;;20.72;56.42;98866.78;7310299;19;154228;-38
2021/12/25 07:59:14;;;;;;;18.08;2.60;;;;;;;20.73;56.17;98864.03;7309953;19;156954;-37
2021/12/25 08:01:40;;;;;;;21.65;3.50;;;;;;;20.76;56.04;98868.13;7310642;19;131308;-37
2021/12/25 08:04:05;;;;;;;16.17;2.50;;;;;;;20.71;55.97;98870.34;7309781;19;154159;-34
2021/12/25 08:06:32;;;;;;;14.50;1.98;;;;;;;20.70;55.79;98868.72;7310246;19;129151;-33
2021/12/25 08:09:00;;;;;;;11.15;1.70;;;;;;;20.69;56.52;98860.06;7310675;19;129632;-34
2021/12/25 08:11:27;;;;;;;11.65;1.70;;;;;;;20.72;56.05;98861.56;7309929;19;129531;-39
2021/12/25 08:13:52;;;;;;;24.80;4.40;;;;;;;20.70;56.63;98853.06;7309906;19;129687;-36
2021/12/25 08:16:18;;;;;;;16.55;2.72;;;;;;;20.68;56.61;98852.38;7310849;19;130290;-32
2021/12/25 08:18:43;;;;;;;13.23;2.13;;;;;;;20.68;56.51;98855.81;7308939;19;158234;-34
2021/12/25 08:21:08;;;;;;;21.60;2.97;;;;;;;20.69;56.28;98861.88;7309586;19;158259;-36
2021/12/25 08:23:34;;;;;;;17.95;2.58;;;;;;;20.69;56.13;98867.09;7309489;19;129584;-37
2021/12/25 08:26:00;;;;;;;15.93;2.25;;;;;;;20.71;56.21;98872.97;7310063;19;154541;-30
2021/12/25 08:28:25;;;;;;;13.67;2.13;;;;;;;20.69;56.06;98878.34;7307187;19;130863;-38
2021/12/25 08:30:50;;;;;;;18.23;2.67;;;;;;;20.75;55.92;98887.38;7308050;19;158376;-33
2021/12/25 08:33:16;;;;;;;17.07;2.80;;;;;;;20.72;56.05;98882.47;7307868;19;153709;-35
2021/12/25 08:35:41;;;;;;;16.30;2.13;;;;;;;20.73;56.10;98882.31;7307031;19;154246;-37
2021/12/25 08:38:07;;;;;;;16.20;2.72;;;;;;;20.72;56.39;98885.09;7307619;19;143882;-35
2021/12/25 08:40:32;;;;;;;13.82;2.38;;;;;;;20.74;56.36;98880.53;7310231;19;150935;-36
2021/12/25 08:43:01;;;;;;;9.82;1.60;;;;;;;20.71;55.99;98880.81;7310562;19;128894;-36
2021/12/25 08:45:49;;;;;;;15.75;2.30;;;;;;;20.59;56.88;98867.16;7309510;19;129400;-35
2021/12/25 08:48:16;;;;;;;;;;;;;;;20.64;56.98;98874.56;7309150;19;130736;-36
2021/12/25 08:50:45;;;;;;;11.45;1.75;;;;;;;20.67;56.63;98869.88;7309923;19;129466;-32
2021/12/25 08:53:10;;;;;;;16.10;2.45;;;;;;;20.70;56.56;98873.94;7310702;19;129437;-35
2021/12/25 08:55:37;;;;;;;12.73;2.10;;;;;;;20.66;56.65;98883.88;7310849;19;129330;-33
2021/12/25 08:58:02;;;;;;;9.60;1.73;;;;;;;20.63;55.91;98862.47;7306517;19;156660;-38
2021/12/25 09:00:28;;;;;;;10.43;1.50;;;;;;;20.69;56.73;98872.31;7308999;19;129322;-34
2021/12/25 09:02:53;;;;;;;15.70;2.35;;;;;;;20.69;56.45;98872.31;7310039;19;129721;-35
2021/12/25 09:05:18;;;;;;;14.57;2.03;;;;;;;20.66;56.79;98880.44;7304979;19;149664;-31
2021/12/25 09:07:44;;;;;;;16.98;2.53;;;;;;;20.68;56.04;98881.94;7308846;19;130233;-33
2021/12/25 09:10:10;;;;;;;12.68;2.10;;;;;;;20.66;56.61;98877.81;7308317;19;129397;-34
2021/12/25 09:12:40;;;;;;;12.00;2.33;;;;;;;20.67;56.10;98871.66;7309395;19;130412;-34
2021/12/25 09:15:06;;;;;;;18.83;2.80;;;;;;;20.71;56.14;98880.81;7307053;19;129325;-42
2021/12/25 09:17:31;;;;;;;12.80;2.50;;;;;;;20.67;56.00;98884.72;7307346;19;130271;-34
2021/12/25 09:19:56;;;;;;;14.65;2.00;;;;;;;20.68;56.73;98891.56;7306477;19;158800;-33
2021/12/25 09:22:21;;;;;;;22.05;3.38;;;;;;;20.67;56.16;98895.16;7307257;19;129747;-39
2021/12/25 09:24:47;;;;;;;15.40;2.27;;;;;;;20.66;56.29;98899.56;7303577;19;154794;-31
2021/12/25 09:27:12;;;;;;;20.17;3.57;;;;;;;20.67;55.91;98916.06;7304909;19;158438;-37
2021/12/25 09:29:37;;;;;;;21.88;3.33;;;;;;;20.69;56.27;98908.91;7306161;19;129160;-32
2021/12/25 09:32:03;;;;;;;11.98;1.88;;;;;;;20.76;55.52;98914.34;7307715;19;129198;-33
2021/12/25 09:34:28;;;;;;;5.30;0.90;;;;;;;20.67;56.02;98903.00;7308458;19;129190;-37
2021/12/25 09:36:54;;;;;;;16.42;2.17;;;;;;;20.67;55.99;98914.28;7308287;19;129757;-31
2021/12/25 09:39:20;;;;;;;14.63;1.90;;;;;;;20.68;56.28;98922.91;7306226;19;129419;-33
2021/12/25 09:41:45;;;;;;;15.50;2.35;;;;;;;20.69;56.30;98914.13;7309384;19;128874;-37
2021/12/25 09:44:10;;;;;;;8.98;1.80;;;;;;;20.71;55.83;98917.38;7307982;19;129336;-36
2021/12/25 09:46:36;;;;;;;11.93;1.87;;;;;;;20.72;56.49;98924.25;7306815;19;158284;-31
2021/12/25 09:49:02;;;;;;;12.93;2.17;;;;;;;20.69;56.54;98921.94;7306973;19;158202;-36
2021/12/25 09:51:28;;;;;;;22.60;3.05;;;;;;;20.69;56.69;98921.94;7306691;19;129278;-33
2021/12/25 09:54:06;;;;;;;21.40;3.75;;;;;;;20.72;56.87;98929.47;7307661;19;129655;-36
2021/12/25 09:56:32;;;;;;;13.07;1.90;;;;;;;20.72;56.05;98921.66;7307949;19;129958;-36
2021/12/25 09:58:57;;;;;;;17.30;2.37;;;;;;;20.69;56.18;98925.38;7307042;19;129229;-37
2021/12/25 10:01:45;;;;;;;10.20;1.52;;;;;;;20.71;57.58;98928.66;7308098;19;154842;-36
2021/12/25 10:04:29;;;;;;;15.23;2.33;;;;;;;20.67;56.23;98918.66;7307564;19;129032;-33
2021/12/25 10:06:55;;;;;;;7.80;1.35;;;;;;;20.65;55.96;98929.25;7307169;19;129606;-35
2021/12/25 10:09:24;;;;;;;9.18;1.50;;;;;;;20.69;55.89;98927.19;7307589;19;129266;-34
2021/12/25 10:12:01;;;;;;;12.13;2.05;;;;;;;20.64;56.35;98916.34;7314772;19;130077;-35
2021/12/25 10:14:26;;;;;;;16.60;2.38;;;;;;;20.56;56.43;98903.22;7314007;19;130443;-35
2021/12/25 10:16:52;;;;;;;10.40;1.55;;;;;;;20.62;55.92;98918.28;7313645;19;129512;-38
2021/12/25 10:19:20;;;;;;;17.15;2.63;;;;;;;20.66;56.05;98920.44;7313724;19;130759;-34
2021/12/25 10:21:46;;;;;;;16.83;2.50;;;;;;;20.65;56.07;98923.22;7314916;19;129102;-39
2021/12/25 10:24:25;;;;;;;18.52;2.88;;;;;;;20.64;56.16;98932.03;7311884;19;129932;-38
2021/12/25 10:26:50;;;;;;;19.48;2.80;;;;;;;20.67;56.01;98936.94;7312981;19;130388;-35
2021/12/25 10:29:25;;;;;;;8.60;1.30;;;;;;;20.68;56.38;98943.81;7311743;19;159208;-38
2021/12/25 10:31:53;;;;;;;20.05;2.90;;;;;;;20.73;56.29;98954.63;7315680;19;129132;-32
2021/12/25 10:34:21;;;;;;;6.10;1.10;;;;;;;20.59;56.26;98935.06;7310808;19;129363;-35
2021/12/25 10:36:47;;;;;;;10.15;1.58;;;;;;;20.66;55.15;98949.19;7312282;19;129256;-36
2021/12/25 10:39:15;;;;;;;26.83;4.43;;;;;;;20.77;55.01;98942.09;7311129;19;130507;-41
2021/12/25 10:41:49;;;;;;;12.57;2.33;;;;;;;20.75;55.24;98939.63;7313436;19;129544;-33
2021/12/25 10:44:18;;;;;;;22.58;3.83;;;;;;;20.82;54.88;98940.69;7310055;19;154828;-36
2021/12/25 10:46:53;;;;;;;21.30;3.10;;;;;;;20.81;55.19;98940.81;7313616;19;129364;-37
2021/12/25 10:49:20;;;;;;;15.38;2.45;;;;;;;20.92;54.58;98943.19;7310556;19;130475;-36
2021/12/25 10:51:46;;;;;;;18.73;2.83;;;;;;;20.96;55.19;98941.94;7312803;19;129978;-38
2021/12/25 10:54:14;;;;;;;20.63;3.00;;;;;;;20.87;54.49;98948.06;7311900;19;129324;-38
2021/12/25 10:56:41;;;;;;;17.00;3.15;;;;;;;20.91;55.74;98944.97;7313261;19;130512;-39
2021/12/25 10:59:13;;;;;;;13.98;2.63;;;;;;;20.78;55.51;98952.38;7313071;19;129406;-41
2021/12/25 11:01:45;;;;;;;13.52;2.30;;;;;;;20.87;55.01;98950.66;7313839;19;129301;-37
2021/12/25 11:04:31;;;;;;;15.40;2.83;;;;;;;20.86;55.94;98952.44;7311763;19;129295;-39
2021/12/25 11:06:58;;;;;;;14.05;2.08;;;;;;;20.77;55.35;98947.31;7311065;19;130226;-37
2021/12/25 11:09:24;;;;;;;15.75;2.78;;;;;;;20.74;55.43;98951.06;7310154;19;130204;-38
2021/12/25 11:12:15;;;;;;;19.60;3.75;;;;;;;20.74;56.44;98946.63;7312165;19;129015;-40
2021/12/25 11:14:41;;;;;;;12.75;2.22;;;;;;;20.67;55.18;98947.41;7310068;19;129245;-38
2021/12/25 11:17:25;;;;;;;14.83;2.60;;;;;;;20.68;55.53;98949.84;7311405;19;129785;-38
2021/12/25 11:20:00;;;;;;;14.57;2.80;;;;;;;20.60;56.27;98941.13;7312858;19;131553;-37
2021/12/25 11:22:27;;;;;;;11.30;2.00;;;;;;;20.59;56.46;98949.94;7309905;19;129532;-35
2021/12/25 11:24:54;;;;;;;17.85;2.45;;;;;;;20.59;56.81;98947.31;7310422;19;129441;-38
2021/12/25 11:27:22;;;;;;;21.65;3.58;;;;;;;20.63;55.97;98940.81;7310841;19;129418;-39
2021/12/25 11:29:48;;;;;;;10.60;1.75;;;;;;;20.61;56.23;98945.34;7313165;19;131718;-41
2021/12/25 11:32:13;;;;;;;18.75;3.10;;;;;;;20.61;56.31;98942.75;7312283;19;129271;-38
2021/12/25 11:34:39;;;;;;;12.43;2.20;;;;;;;20.62;56.22;98939.19;7312869;19;128996;-40
2021/12/25 11:37:05;;;;;;;12.18;2.17;;;;;;;20.62;55.75;98940.00;7310417;19;135660;-38
2021/12/25 11:39:31;;;;;;;13.77;2.20;;;;;;;20.63;56.16;98938.19;7311827;19;131037;-34
2021/12/25 11:42:03;;;;;;;13.00;2.03;;;;;;;20.66;56.22;98945.72;7312066;19;129365;-37
2021/12/25 11:44:47;;;;;;;13.57;2.15;;;;;;;20.64;55.69;98932.03;7309660;19;129283;-38
2021/12/25 11:47:31;;;;;;;19.48;3.58;;;;;;;20.66;57.11;98935.28;7309219;19;130165;-39
2021/12/25 11:49:59;;;;;;;19.38;2.75;;;;;;;20.64;55.86;98940.66;7310755;19;130454;-37
2021/12/25 11:52:30;;;;;;;18.25;2.60;;;;;;;20.67;55.82;98942.16;7312128;19;129473;-36
2021/12/25 11:55:17;;;;;;;10.68;1.88;;;;;;;20.57;56.09;98925.75;7311826;19;129046;-37
2021/12/25 11:58:16;;;;;;;12.80;2.25;;;;;;;20.67;55.86;98939.56;7310933;19;131221;-38
2021/12/25 12:00:50;;;;;;;19.35;3.22;;;;;;;20.64;55.55;98937.25;7311568;19;130569;-34
2021/12/25 12:03:38;;;;;;;18.45;3.03;;;;;;;20.68;56.08;98936.78;7311696;19;129376;-39
2021/12/25 12:06:04;;;;;;;8.25;1.95;;;;;;;20.66;55.68;98941.34;7312055;19;129542;-36
2021/12/25 12:08:52;;;;;;;14.38;2.38;;;;;;;20.66;56.49;98946.56;7308642;19;130293;-37
2021/12/25 12:11:22;;;;;;;;;;;;;;;20.64;56.65;98942.47;7311537;19;130474;-40
2021/12/25 12:13:47;;;;;;;23.80;4.10;;;;;;;20.68;56.21;98949.03;7310120;19;130279;-38
2021/12/25 12:16:12;;;;;;;15.07;2.65;;;;;;;20.70;56.43;98949.69;7312345;19;129223;-35
2021/12/25 12:18:41;;;;;;;12.88;2.22;;;;;;;20.71;55.54;98948.72;7307845;19;140347;-41
2021/12/25 12:21:35;;;;;;;11.55;2.17;;;;;;;20.75;56.85;98950.06;7309487;19;131188;-38
2021/12/25 12:24:41;;;;;;;16.40;3.15;;;;;;;20.73;56.19;98945.00;7308953;19;129099;-36
2021/12/25 12:27:06;;;;;;;14.85;2.45;;;;;;;20.71;55.45;98951.34;7309245;19;129574;-36
2021/12/25 12:29:38;;;;;;;14.07;2.30;;;;;;;20.71;55.58;98949.56;7311280;19;129325;-36
2021/12/25 12:32:03;;;;;;;16.67;2.67;;;;;;;20.71;55.50;98946.09;7308194;19;158476;-35
2021/12/25 12:34:28;;;;;;;13.98;2.15;;;;;;;20.69;56.20;98946.25;7307439;19;129487;-37
2021/12/25 12:37:13;;;;;;;8.23;1.37;;;;;;;20.75;55.68;98939.63;7309345;19;153993;-38
2021/12/25 12:39:54;;;;;;;13.15;2.38;;;;;;;20.73;55.47;98936.34;7308044;19;158363;-33
2021/12/25 12:42:39;;;;;;;18.35;3.10;;;;;;;20.68;55.70;98949.03;7309834;19;130633;-37
2021/12/25 12:45:19;;;;;;;16.85;2.97;;;;;;;20.71;56.41;98953.94;7306257;19;128876;-36